createdAt,value
2022-10-20T00:00:03.689Z,1022.32
2022-10-20T00:01:03.701Z,1022.29
2022-10-20T00:02:03.697Z,1022.29
2022-10-20T00:03:03.742Z,1022.28
2022-10-20T00:04:03.647Z,1022.29
2022-10-20T00:05:03.681Z,1022.31
2022-10-20T00:06:03.622Z,1022.29
2022-10-20T00:07:03.678Z,1022.34
2022-10-20T00:08:03.600Z,1022.28
2022-10-20T00:09:03.667Z,1022.28
2022-10-20T00:10:03.609Z,1022.32
2022-10-20T00:11:03.594Z,1022.30
2022-10-20T00:12:03.556Z,1022.35
2022-10-20T00:13:03.631Z,1022.29
2022-10-20T00:14:03.536Z,1022.29
2022-10-20T00:15:03.608Z,1022.25
2022-10-20T00:16:03.516Z,1022.31
2022-10-20T00:17:03.499Z,1022.29
2022-10-20T00:18:03.494Z,1022.33
2022-10-20T00:19:03.528Z,1022.29
2022-10-20T00:20:03.565Z,1022.31
2022-10-20T00:21:03.528Z,1022.30
2022-10-20T00:22:03.446Z,1022.29
2022-10-20T00:23:03.437Z,1022.33
2022-10-20T00:24:03.423Z,1022.24
2022-10-20T00:25:03.421Z,1022.25
2022-10-20T00:26:03.420Z,1022.26
2022-10-20T00:27:03.417Z,1022.17
2022-10-20T00:28:03.374Z,1022.19
2022-10-20T00:29:03.535Z,1022.21
2022-10-20T00:30:03.360Z,1022.17
2022-10-20T00:31:03.346Z,1022.24
2022-10-20T00:32:03.331Z,1022.22
2022-10-20T00:33:03.354Z,1022.21
2022-10-20T00:34:03.309Z,1022.22
2022-10-20T00:35:03.347Z,1022.20
2022-10-20T00:36:03.286Z,1022.20
2022-10-20T00:37:03.348Z,1022.19
2022-10-20T00:38:03.262Z,1022.18
2022-10-20T00:39:03.264Z,1022.18
2022-10-20T00:40:03.239Z,1022.18
2022-10-20T00:41:03.287Z,1022.18
2022-10-20T00:42:03.245Z,1022.11
2022-10-20T00:43:03.265Z,1022.11
2022-10-20T00:44:03.193Z,1022.09
2022-10-20T00:45:03.259Z,1022.04
2022-10-20T00:46:03.173Z,1022.08
2022-10-20T00:47:03.167Z,1022.05
2022-10-20T00:48:03.151Z,1021.98
2022-10-20T00:49:03.169Z,1022.00
2022-10-20T00:50:03.130Z,1021.97
2022-10-20T00:51:03.169Z,1021.95
2022-10-20T00:52:03.109Z,1021.93
2022-10-20T00:53:03.098Z,1021.90
2022-10-20T00:54:03.089Z,1021.88
2022-10-20T00:55:03.072Z,1021.90
2022-10-20T00:56:03.068Z,1021.82
2022-10-20T00:58:03.060Z,1021.77
2022-10-20T00:59:03.028Z,1021.82
2022-10-20T01:00:03.014Z,1021.83
2022-10-20T01:01:03.009Z,1021.80
2022-10-20T01:02:03.051Z,1021.78
2022-10-20T01:03:02.981Z,1021.78
2022-10-20T01:04:02.975Z,1021.73
2022-10-20T01:05:02.964Z,1021.70
2022-10-20T01:06:02.959Z,1021.69
2022-10-20T01:07:02.936Z,1021.72
2022-10-20T01:08:02.938Z,1021.71
2022-10-20T01:09:02.969Z,1021.72
2022-10-20T01:10:02.904Z,1021.69
2022-10-20T01:11:02.893Z,1021.71
2022-10-20T01:12:02.880Z,1021.71
2022-10-20T01:13:02.869Z,1021.76
2022-10-20T01:14:02.882Z,1021.75
2022-10-20T01:15:02.845Z,1021.84
2022-10-20T01:16:02.840Z,1021.81
2022-10-20T01:17:02.823Z,1021.81
2022-10-20T01:18:02.813Z,1021.83
2022-10-20T01:19:02.800Z,1021.75
2022-10-20T01:20:02.792Z,1021.72
2022-10-20T01:21:02.779Z,1021.74
2022-10-20T01:22:02.779Z,1021.65
2022-10-20T01:23:02.756Z,1021.68
2022-10-20T01:24:02.747Z,1021.67
2022-10-20T01:25:02.737Z,1021.69
2022-10-20T01:26:02.725Z,1021.71
2022-10-20T01:27:02.715Z,1021.65
2022-10-20T01:28:02.699Z,1021.64
2022-10-20T01:29:02.695Z,1021.65
2022-10-20T01:30:02.701Z,1021.64
2022-10-20T01:31:02.668Z,1021.67
2022-10-20T01:32:02.655Z,1021.62
2022-10-20T01:33:02.642Z,1021.61
2022-10-20T01:34:02.632Z,1021.58
2022-10-20T01:35:02.619Z,1021.55
2022-10-20T01:36:02.610Z,1021.56
2022-10-20T01:37:02.602Z,1021.61
2022-10-20T01:38:02.587Z,1021.54
2022-10-20T01:39:02.587Z,1021.47
2022-10-20T01:40:02.564Z,1021.48
2022-10-20T01:41:02.586Z,1021.45
2022-10-20T01:42:02.542Z,1021.47
2022-10-20T01:43:02.538Z,1021.44
2022-10-20T01:44:02.528Z,1021.44
2022-10-20T01:45:02.509Z,1021.44
2022-10-20T01:46:02.524Z,1021.42
2022-10-20T01:47:02.485Z,1021.43
2022-10-20T01:48:02.482Z,1021.46
2022-10-20T01:49:02.463Z,1021.44
2022-10-20T01:50:02.452Z,1021.43
2022-10-20T01:51:02.440Z,1021.40
2022-10-20T01:52:02.429Z,1021.45
2022-10-20T01:53:02.418Z,1021.40
2022-10-20T01:54:02.411Z,1021.46
2022-10-20T01:55:02.438Z,1021.40
2022-10-20T01:56:02.385Z,1021.37
2022-10-20T01:57:02.375Z,1021.41
2022-10-20T01:58:02.362Z,1021.40
2022-10-20T01:59:02.350Z,1021.33
2022-10-20T02:00:02.342Z,1021.33
2022-10-20T02:01:02.334Z,1021.33
2022-10-20T02:02:02.350Z,1021.36
2022-10-20T02:03:02.306Z,1021.18
2022-10-20T02:04:02.293Z,1021.20
2022-10-20T02:05:02.283Z,1021.15
2022-10-20T02:06:02.274Z,1021.12
2022-10-20T02:07:02.263Z,1021.12
2022-10-20T02:08:02.249Z,1021.09
2022-10-20T02:09:02.317Z,1021.12
2022-10-20T02:10:02.227Z,1021.12
2022-10-20T02:11:04.218Z,1021.08
2022-10-20T02:12:02.210Z,1021.08
2022-10-20T02:13:02.192Z,1020.98
2022-10-20T02:14:02.181Z,1020.95
2022-10-20T02:15:02.175Z,1020.98
2022-10-20T02:16:02.160Z,1020.95
2022-10-20T02:17:02.155Z,1020.92
2022-10-20T02:18:02.160Z,1020.94
2022-10-20T02:19:02.130Z,1020.96
2022-10-20T02:20:02.113Z,1020.92
2022-10-20T02:21:02.108Z,1020.98
2022-10-20T02:22:02.089Z,1020.87
2022-10-20T02:23:02.077Z,1020.90
2022-10-20T02:24:02.071Z,1020.95
2022-10-20T02:25:02.059Z,1020.95
2022-10-20T02:26:02.043Z,1020.90
2022-10-20T02:27:02.039Z,1020.92
2022-10-20T02:28:02.022Z,1020.84
2022-10-20T02:29:02.025Z,1020.86
2022-10-20T02:30:02.003Z,1020.93
2022-10-20T02:31:01.993Z,1020.92
2022-10-20T02:32:01.976Z,1020.85
2022-10-20T02:33:01.967Z,1020.94
2022-10-20T02:34:01.977Z,1020.90
2022-10-20T02:35:05.092Z,1020.92
2022-10-20T02:36:01.932Z,1020.85
2022-10-20T02:37:01.919Z,1020.91
2022-10-20T02:38:01.918Z,1020.84
2022-10-20T02:39:01.894Z,1020.84
2022-10-20T02:40:01.889Z,1020.85
2022-10-20T02:41:01.873Z,1020.83
2022-10-20T02:42:01.866Z,1020.83
2022-10-20T02:43:01.849Z,1020.77
2022-10-20T02:44:01.840Z,1020.80
2022-10-20T02:45:01.849Z,1020.81
2022-10-20T02:46:01.818Z,1020.89
2022-10-20T02:47:01.811Z,1020.82
2022-10-20T02:48:03.298Z,1020.75
2022-10-20T02:49:01.780Z,1020.80
2022-10-20T02:50:01.800Z,1020.73
2022-10-20T02:51:01.761Z,1020.73
2022-10-20T02:52:03.745Z,1020.73
2022-10-20T02:53:01.736Z,1020.76
2022-10-20T02:54:01.723Z,1020.77
2022-10-20T02:55:01.712Z,1020.80
2022-10-20T02:56:01.701Z,1020.74
2022-10-20T02:57:01.684Z,1020.71
2022-10-20T02:58:01.682Z,1020.78
2022-10-20T02:59:01.671Z,1020.81
2022-10-20T03:00:01.656Z,1020.74
2022-10-20T03:01:01.645Z,1020.78
2022-10-20T03:02:01.699Z,1020.79
2022-10-20T03:03:01.624Z,1020.77
2022-10-20T03:04:01.604Z,1020.72
2022-10-20T03:05:01.594Z,1020.72
2022-10-20T03:06:01.605Z,1020.75
2022-10-20T03:07:01.576Z,1020.71
2022-10-20T03:08:01.564Z,1020.72
2022-10-20T03:09:01.609Z,1020.68
2022-10-20T03:10:01.542Z,1020.66
2022-10-20T03:11:01.527Z,1020.65
2022-10-20T03:12:01.512Z,1020.70
2022-10-20T03:13:01.501Z,1020.67
2022-10-20T03:14:01.498Z,1020.67
2022-10-20T03:15:01.479Z,1020.62
2022-10-20T03:16:01.474Z,1020.68
2022-10-20T03:17:01.463Z,1020.64
2022-10-20T03:18:01.447Z,1020.60
2022-10-20T03:19:04.590Z,1020.65
2022-10-20T03:20:01.421Z,1020.62
2022-10-20T03:21:01.407Z,1020.62
2022-10-20T03:22:01.423Z,1020.55
2022-10-20T03:23:01.385Z,1020.55
2022-10-20T03:24:01.372Z,1020.53
2022-10-20T03:25:01.363Z,1020.48
2022-10-20T03:26:01.350Z,1020.51
2022-10-20T03:27:01.339Z,1020.41
2022-10-20T03:28:01.326Z,1020.44
2022-10-20T03:29:01.313Z,1020.48
2022-10-20T03:30:01.303Z,1020.51
2022-10-20T03:31:01.291Z,1020.48
2022-10-20T03:32:01.278Z,1020.48
2022-10-20T03:33:01.273Z,1020.47
2022-10-20T03:34:01.257Z,1020.46
2022-10-20T03:35:01.245Z,1020.47
2022-10-20T03:36:01.233Z,1020.45
2022-10-20T03:37:01.219Z,1020.47
2022-10-20T03:38:01.231Z,1020.51
2022-10-20T03:39:01.197Z,1020.40
2022-10-20T03:40:01.187Z,1020.41
2022-10-20T03:42:01.166Z,1020.40
2022-10-20T03:43:01.150Z,1020.46
2022-10-20T03:44:01.139Z,1020.34
2022-10-20T03:45:01.127Z,1020.44
2022-10-20T03:46:01.119Z,1020.44
2022-10-20T03:47:01.109Z,1020.40
2022-10-20T03:48:01.096Z,1020.41
2022-10-20T03:49:01.080Z,1020.38
2022-10-20T03:50:01.148Z,1020.40
2022-10-20T03:51:01.060Z,1020.37
2022-10-20T03:52:01.043Z,1020.38
2022-10-20T03:53:01.041Z,1020.45
2022-10-20T03:54:01.048Z,1020.43
2022-10-20T03:55:01.010Z,1020.41
2022-10-20T03:56:01.001Z,1020.42
2022-10-20T03:57:04.147Z,1020.39
2022-10-20T03:58:00.979Z,1020.44
2022-10-20T03:59:01.082Z,1020.44
2022-10-20T04:00:00.955Z,1020.45
2022-10-20T04:01:00.946Z,1020.39
2022-10-20T04:02:01.072Z,1020.44
2022-10-20T04:03:00.919Z,1020.34
2022-10-20T04:04:00.908Z,1020.32
2022-10-20T04:05:00.906Z,1020.37
2022-10-20T04:06:00.885Z,1020.32
2022-10-20T04:07:00.877Z,1020.40
2022-10-20T04:08:00.891Z,1020.37
2022-10-20T04:09:00.975Z,1020.35
2022-10-20T04:10:00.864Z,1020.36
2022-10-20T04:11:00.833Z,1020.25
2022-10-20T04:12:00.815Z,1020.32
2022-10-20T04:13:00.802Z,1020.29
2022-10-20T04:14:00.792Z,1020.31
2022-10-20T04:15:00.781Z,1020.32
2022-10-20T04:16:00.771Z,1020.25
2022-10-20T04:17:00.764Z,1020.21
2022-10-20T04:18:00.761Z,1020.28
2022-10-20T04:19:00.742Z,1020.23
2022-10-20T04:20:00.724Z,1020.25
2022-10-20T04:21:00.719Z,1020.26
2022-10-20T04:22:00.700Z,1020.24
2022-10-20T04:23:00.696Z,1020.29
2022-10-20T04:24:00.676Z,1020.21
2022-10-20T04:25:00.673Z,1020.27
2022-10-20T04:26:00.685Z,1020.26
2022-10-20T04:27:00.651Z,1020.25
2022-10-20T04:28:00.631Z,1020.20
2022-10-20T04:29:00.622Z,1020.16
2022-10-20T04:30:00.609Z,1020.14
2022-10-20T04:31:00.607Z,1020.13
2022-10-20T04:32:00.587Z,1020.19
2022-10-20T04:33:00.576Z,1020.14
2022-10-20T04:34:00.573Z,1020.11
2022-10-20T04:35:00.555Z,1020.09
2022-10-20T04:36:00.544Z,1020.05
2022-10-20T04:37:00.531Z,1020.03
2022-10-20T04:38:00.525Z,1019.97
2022-10-20T04:39:00.509Z,1020.00
2022-10-20T04:40:00.506Z,1020.00
2022-10-20T04:41:03.359Z,1019.98
2022-10-20T04:42:00.503Z,1020.00
2022-10-20T04:43:00.467Z,1020.01
2022-10-20T04:44:00.455Z,1019.98
2022-10-20T04:45:00.487Z,1020.06
2022-10-20T04:46:02.639Z,1020.00
2022-10-20T04:47:00.422Z,1020.01
2022-10-20T04:48:00.417Z,1019.99
2022-10-20T04:49:00.400Z,1019.97
2022-10-20T04:50:00.391Z,1019.93
2022-10-20T04:51:00.371Z,1019.85
2022-10-20T04:52:01.280Z,1019.85
2022-10-20T04:53:00.360Z,1019.83
2022-10-20T04:54:00.384Z,1019.83
2022-10-20T04:55:00.343Z,1019.81
2022-10-20T04:56:00.318Z,1019.82
2022-10-20T04:57:00.316Z,1019.84
2022-10-20T04:58:00.322Z,1019.81
2022-10-20T04:59:00.391Z,1019.78
2022-10-20T05:00:00.291Z,1019.82
2022-10-20T05:01:00.264Z,1019.81
2022-10-20T05:02:00.315Z,1019.85
2022-10-20T05:03:00.343Z,1019.75
2022-10-20T05:04:00.230Z,1019.77
2022-10-20T05:05:00.221Z,1019.84
2022-10-20T05:06:00.214Z,1019.77
2022-10-20T05:07:00.196Z,1019.76
2022-10-20T05:08:00.187Z,1019.72
2022-10-20T05:09:00.253Z,1019.71
2022-10-20T05:10:00.169Z,1019.74
2022-10-20T05:11:00.155Z,1019.77
2022-10-20T05:12:00.297Z,1019.64
2022-10-20T05:13:00.129Z,1019.73
2022-10-20T05:14:00.146Z,1019.63
2022-10-20T05:15:00.107Z,1019.69
2022-10-20T05:16:00.096Z,1019.75
2022-10-20T05:17:04.226Z,1019.66
2022-10-20T05:18:00.082Z,1019.66
2022-10-20T05:19:02.068Z,1019.64
2022-10-20T05:20:00.051Z,1019.66
2022-10-20T05:21:08.759Z,1019.68
2022-10-20T05:22:00.035Z,1019.67
2022-10-20T05:23:00.033Z,1019.62
2022-10-20T05:24:00.013Z,1019.65
2022-10-20T05:25:12.794Z,1019.63
2022-10-20T05:25:59.986Z,1019.63
2022-10-20T05:26:59.977Z,1019.60
2022-10-20T05:27:59.966Z,1019.68
2022-10-20T05:28:59.951Z,1019.62
2022-10-20T05:29:59.972Z,1019.60
2022-10-20T05:31:01.514Z,1019.66
2022-10-20T05:31:59.925Z,1019.58
2022-10-20T05:33:01.910Z,1019.65
2022-10-20T05:33:59.902Z,1019.66
2022-10-20T05:34:59.894Z,1019.58
2022-10-20T05:35:59.876Z,1019.68
2022-10-20T05:36:59.872Z,1019.59
2022-10-20T05:38:01.856Z,1019.64
2022-10-20T05:39:01.845Z,1019.66
2022-10-20T05:39:59.844Z,1019.70
2022-10-20T05:40:59.820Z,1019.68
2022-10-20T05:41:59.811Z,1019.74
2022-10-20T05:42:59.805Z,1019.64
2022-10-20T05:43:59.787Z,1019.64
2022-10-20T05:44:59.782Z,1019.68
2022-10-20T05:46:01.794Z,1019.72
2022-10-20T05:46:59.762Z,1019.74
2022-10-20T05:47:59.743Z,1019.76
2022-10-20T05:48:59.735Z,1019.77
2022-10-20T05:49:59.722Z,1019.74
2022-10-20T05:50:59.714Z,1019.79
2022-10-20T05:51:59.700Z,1019.69
2022-10-20T05:52:59.688Z,1019.79
2022-10-20T05:53:59.735Z,1019.77
2022-10-20T05:54:59.664Z,1019.79
2022-10-20T05:55:59.661Z,1019.72
2022-10-20T05:56:59.651Z,1019.77
2022-10-20T05:57:59.633Z,1019.72
2022-10-20T05:58:59.624Z,1019.71
2022-10-20T05:59:59.608Z,1019.80
2022-10-20T06:00:59.603Z,1019.76
2022-10-20T06:01:59.615Z,1019.74
2022-10-20T06:02:59.578Z,1019.81
2022-10-20T06:03:59.573Z,1019.82
2022-10-20T06:04:59.555Z,1019.78
2022-10-20T06:05:59.544Z,1019.78
2022-10-20T06:06:59.533Z,1019.81
2022-10-20T06:07:59.523Z,1019.81
2022-10-20T06:08:59.665Z,1019.78
2022-10-20T06:09:59.499Z,1019.76
2022-10-20T06:10:59.489Z,1019.81
2022-10-20T06:11:59.594Z,1019.82
2022-10-20T06:12:59.467Z,1019.83
2022-10-20T06:13:59.464Z,1019.87
2022-10-20T06:14:59.443Z,1019.90
2022-10-20T06:15:59.434Z,1019.84
2022-10-20T06:16:59.422Z,1019.81
2022-10-20T06:17:59.436Z,1019.90
2022-10-20T06:18:59.410Z,1019.94
2022-10-20T06:19:59.388Z,1019.84
2022-10-20T06:20:59.378Z,1019.84
2022-10-20T06:22:03.862Z,1019.88
2022-10-20T06:22:59.356Z,1019.84
2022-10-20T06:23:59.350Z,1019.85
2022-10-20T06:24:59.334Z,1019.80
2022-10-20T06:25:59.323Z,1019.85
2022-10-20T06:26:59.313Z,1019.88
2022-10-20T06:27:59.302Z,1019.83
2022-10-20T06:29:04.017Z,1019.84
2022-10-20T06:29:59.277Z,1019.85
2022-10-20T06:30:59.273Z,1019.85
2022-10-20T06:31:59.256Z,1019.79
2022-10-20T06:32:59.245Z,1019.83
2022-10-20T06:33:59.263Z,1019.85
2022-10-20T06:34:59.222Z,1019.86
2022-10-20T06:35:59.216Z,1019.83
2022-10-20T06:36:59.201Z,1019.86
2022-10-20T06:37:59.189Z,1019.78
2022-10-20T06:38:59.182Z,1019.82
2022-10-20T06:39:59.278Z,1019.80
2022-10-20T06:40:59.255Z,1019.71
2022-10-20T06:41:59.295Z,1019.79
2022-10-20T06:42:59.298Z,1019.81
2022-10-20T06:43:59.229Z,1019.75
2022-10-20T06:44:59.112Z,1019.79
2022-10-20T06:45:59.108Z,1019.74
2022-10-20T06:46:59.095Z,1019.73
2022-10-20T06:47:59.083Z,1019.72
2022-10-20T06:48:59.176Z,1019.77
2022-10-20T06:49:59.083Z,1019.76
2022-10-20T06:50:59.061Z,1019.75
2022-10-20T06:51:59.105Z,1019.77
2022-10-20T06:52:59.035Z,1019.71
2022-10-20T06:53:59.019Z,1019.72
2022-10-20T06:54:59.005Z,1019.72
2022-10-20T06:55:59.108Z,1019.76
2022-10-20T06:56:58.981Z,1019.71
2022-10-20T06:57:58.971Z,1019.70
2022-10-20T06:58:58.961Z,1019.69
2022-10-20T06:59:58.947Z,1019.63
2022-10-20T07:00:58.944Z,1019.65
2022-10-20T07:01:58.991Z,1019.72
2022-10-20T07:02:58.919Z,1019.66
2022-10-20T07:03:58.911Z,1019.67
2022-10-20T07:04:58.893Z,1019.71
2022-10-20T07:05:58.905Z,1019.65
2022-10-20T07:06:58.875Z,1019.65
2022-10-20T07:07:58.859Z,1019.62
2022-10-20T07:08:58.901Z,1019.54
2022-10-20T07:09:58.839Z,1019.63
2022-10-20T07:10:58.831Z,1019.61
2022-10-20T07:11:58.813Z,1019.63
2022-10-20T07:12:58.801Z,1019.59
2022-10-20T07:13:58.790Z,1019.66
2022-10-20T07:14:58.779Z,1019.65
2022-10-20T07:15:58.766Z,1019.61
2022-10-20T07:16:58.757Z,1019.67
2022-10-20T07:17:58.745Z,1019.62
2022-10-20T07:18:58.739Z,1019.67
2022-10-20T07:19:58.723Z,1019.65
2022-10-20T07:20:58.712Z,1019.61
2022-10-20T07:21:58.723Z,1019.49
2022-10-20T07:22:58.690Z,1019.63
2022-10-20T07:23:58.732Z,1019.60
2022-10-20T07:24:58.667Z,1019.59
2022-10-20T07:25:58.856Z,1019.66
2022-10-20T07:26:58.643Z,1019.58
2022-10-20T07:27:58.833Z,1019.66
2022-10-20T07:28:58.621Z,1019.59
2022-10-20T07:29:58.609Z,1019.62
2022-10-20T07:30:58.597Z,1019.65
2022-10-20T07:31:59.997Z,1019.68
2022-10-20T07:32:58.575Z,1019.59
2022-10-20T07:34:07.262Z,1019.68
2022-10-20T07:34:58.559Z,1019.63
2022-10-20T07:35:58.540Z,1019.54
2022-10-20T07:36:58.536Z,1019.52
2022-10-20T07:37:58.543Z,1019.45
2022-10-20T07:38:58.511Z,1019.45
2022-10-20T07:39:58.493Z,1019.42
2022-10-20T07:41:00.708Z,1019.41
2022-10-20T07:41:58.477Z,1019.47
2022-10-20T07:42:58.461Z,1019.39
2022-10-20T07:43:58.447Z,1019.46
2022-10-20T07:44:58.437Z,1019.45
2022-10-20T07:45:58.430Z,1019.46
2022-10-20T07:46:58.414Z,1019.44
2022-10-20T07:47:58.406Z,1019.45
2022-10-20T07:49:11.386Z,1019.52
2022-10-20T07:49:58.381Z,1019.48
2022-10-20T07:50:58.376Z,1019.53
2022-10-20T07:51:58.360Z,1019.39
2022-10-20T07:52:58.346Z,1019.40
2022-10-20T07:54:00.508Z,1019.43
2022-10-20T07:55:06.434Z,1019.43
2022-10-20T07:55:58.315Z,1019.30
2022-10-20T07:56:58.407Z,1019.29
2022-10-20T07:57:58.290Z,1019.42
2022-10-20T07:58:58.284Z,1019.38
2022-10-20T07:59:58.268Z,1019.42
2022-10-20T08:00:58.267Z,1019.42
2022-10-20T08:01:59.923Z,1019.35
2022-10-20T08:02:58.237Z,1019.44
2022-10-20T08:03:58.223Z,1019.46
2022-10-20T08:04:58.216Z,1019.39
2022-10-20T08:05:58.251Z,1019.38
2022-10-20T08:06:58.191Z,1019.43
2022-10-20T08:07:58.473Z,1019.43
2022-10-20T08:08:58.270Z,1019.31
2022-10-20T08:09:58.185Z,1019.34
2022-10-20T08:10:58.140Z,1019.24
2022-10-20T08:11:58.136Z,1019.29
2022-10-20T08:12:58.119Z,1019.29
2022-10-20T08:13:58.108Z,1019.28
2022-10-20T08:14:58.113Z,1019.22
2022-10-20T08:15:58.335Z,1019.25
2022-10-20T08:16:58.327Z,1019.20
2022-10-20T08:17:58.061Z,1019.27
2022-10-20T08:18:58.081Z,1019.29
2022-10-20T08:19:58.462Z,1019.27
2022-10-20T08:20:58.032Z,1019.23
2022-10-20T08:21:58.217Z,1019.22
2022-10-20T08:22:58.007Z,1019.20
2022-10-20T08:23:58.002Z,1019.27
2022-10-20T08:24:57.985Z,1019.20
2022-10-20T08:25:58.000Z,1019.22
2022-10-20T08:26:57.959Z,1019.18
2022-10-20T08:28:57.948Z,1019.08
2022-10-20T08:30:06.004Z,1019.04
2022-10-20T08:30:57.916Z,1019.11
2022-10-20T08:31:57.904Z,1019.02
2022-10-20T08:32:57.892Z,1019.01
2022-10-20T08:33:57.881Z,1019.15
2022-10-20T08:34:57.872Z,1019.03
2022-10-20T08:35:57.865Z,1019.06
2022-10-20T08:36:57.848Z,1019.01
2022-10-20T08:37:57.846Z,1019.07
2022-10-20T08:39:00.861Z,1019.18
2022-10-20T08:39:57.816Z,1019.09
2022-10-20T08:40:57.803Z,1019.06
2022-10-20T08:42:13.143Z,1019.14
2022-10-20T08:42:57.787Z,1019.02
2022-10-20T08:43:57.767Z,1019.02
2022-10-20T08:44:57.761Z,1018.99
2022-10-20T08:45:57.746Z,1019.08
2022-10-20T08:46:57.735Z,1019.20
2022-10-20T08:47:57.724Z,1019.12
2022-10-20T08:48:57.711Z,1019.18
2022-10-20T08:49:57.700Z,1019.02
2022-10-20T08:50:57.694Z,1019.11
2022-10-20T08:51:57.675Z,1019.16
2022-10-20T08:52:57.664Z,1019.06
2022-10-20T08:53:57.658Z,1019.06
2022-10-20T08:54:57.641Z,1019.12
2022-10-20T08:55:57.632Z,1019.08
2022-10-20T08:56:57.620Z,1019.03
2022-10-20T08:57:57.638Z,1019.01
2022-10-20T08:58:57.596Z,1019.01
2022-10-20T08:59:57.592Z,1018.99
2022-10-20T09:00:57.575Z,1018.93
2022-10-20T09:01:57.707Z,1018.93
2022-10-20T09:02:57.554Z,1018.96
2022-10-20T09:03:57.542Z,1019.02
2022-10-20T09:04:57.541Z,1018.90
2022-10-20T09:05:57.521Z,1019.02
2022-10-20T09:06:57.562Z,1019.05
2022-10-20T09:07:57.500Z,1018.90
2022-10-20T09:08:57.588Z,1018.91
2022-10-20T09:09:57.487Z,1018.97
2022-10-20T09:10:57.469Z,1019.00
2022-10-20T09:11:57.455Z,1019.13
2022-10-20T09:12:57.442Z,1018.96
2022-10-20T09:13:57.476Z,1019.07
2022-10-20T09:14:57.428Z,1018.89
2022-10-20T09:15:57.408Z,1018.98
2022-10-20T09:17:00.274Z,1018.90
2022-10-20T09:17:57.385Z,1019.00
2022-10-20T09:18:57.374Z,1018.96
2022-10-20T09:19:57.362Z,1018.84
2022-10-20T09:20:57.351Z,1018.97
2022-10-20T09:21:57.338Z,1018.90
2022-10-20T09:22:57.418Z,1018.90
2022-10-20T09:23:57.320Z,1018.89
2022-10-20T09:24:57.305Z,1018.89
2022-10-20T09:25:57.298Z,1018.95
2022-10-20T09:27:00.004Z,1018.84
2022-10-20T09:27:57.273Z,1018.79
2022-10-20T09:29:12.535Z,1018.79
2022-10-20T09:29:57.273Z,1018.69
2022-10-20T09:30:57.336Z,1018.71
2022-10-20T09:31:57.223Z,1018.68
2022-10-20T09:32:57.364Z,1018.67
2022-10-20T09:33:57.202Z,1018.60
2022-10-20T09:34:57.240Z,1018.68
2022-10-20T09:35:57.180Z,1018.61
2022-10-20T09:36:57.177Z,1018.64
2022-10-20T09:37:57.159Z,1018.55
2022-10-20T09:38:57.149Z,1018.70
2022-10-20T09:39:57.137Z,1018.65
2022-10-20T09:40:57.122Z,1018.66
2022-10-20T09:41:57.172Z,1018.63
2022-10-20T09:42:57.102Z,1018.59
2022-10-20T09:43:58.115Z,1018.52
2022-10-20T09:44:57.087Z,1018.52
2022-10-20T09:45:57.112Z,1018.54
2022-10-20T09:46:57.063Z,1018.48
2022-10-20T09:47:57.047Z,1018.47
2022-10-20T09:48:57.037Z,1018.44
2022-10-20T09:50:00.811Z,1018.48
2022-10-20T09:50:57.016Z,1018.48
2022-10-20T09:51:57.005Z,1018.46
2022-10-20T09:52:56.991Z,1018.45
2022-10-20T09:53:57.030Z,1018.37
2022-10-20T09:54:56.968Z,1018.33
2022-10-20T09:55:56.961Z,1018.30
2022-10-20T09:56:56.948Z,1018.24
2022-10-20T09:57:56.936Z,1018.25
2022-10-20T09:58:56.924Z,1018.24
2022-10-20T10:00:01.111Z,1018.19
2022-10-20T10:00:56.967Z,1018.29
2022-10-20T10:01:56.915Z,1018.26
2022-10-20T10:02:56.879Z,1018.13
2022-10-20T10:03:56.869Z,1018.17
2022-10-20T10:04:56.858Z,1018.09
2022-10-20T10:05:56.861Z,1018.18
2022-10-20T10:06:56.836Z,1018.11
2022-10-20T10:07:56.829Z,1018.06
2022-10-20T10:08:56.883Z,1018.16
2022-10-20T10:09:56.809Z,1018.03
2022-10-20T10:10:56.794Z,1018.05
2022-10-20T10:11:56.780Z,1018.07
2022-10-20T10:12:56.879Z,1018.06
2022-10-20T10:13:56.759Z,1018.02
2022-10-20T10:14:56.758Z,1018.01
2022-10-20T10:15:56.737Z,1018.09
2022-10-20T10:16:56.730Z,1017.99
2022-10-20T10:17:56.744Z,1018.00
2022-10-20T10:18:56.702Z,1017.99
2022-10-20T10:19:56.702Z,1017.87
2022-10-20T10:20:56.681Z,1017.90
2022-10-20T10:21:56.671Z,1017.89
2022-10-20T10:22:56.657Z,1017.85
2022-10-20T10:23:56.652Z,1017.77
2022-10-20T10:24:56.643Z,1017.76
2022-10-20T10:25:59.326Z,1017.72
2022-10-20T10:26:56.623Z,1017.78
2022-10-20T10:27:56.602Z,1017.74
2022-10-20T10:28:56.592Z,1017.70
2022-10-20T10:29:56.582Z,1017.75
2022-10-20T10:30:56.567Z,1017.70
2022-10-20T10:31:56.556Z,1017.67
2022-10-20T10:32:56.545Z,1017.68
2022-10-20T10:33:56.558Z,1017.69
2022-10-20T10:34:56.523Z,1017.61
2022-10-20T10:35:56.518Z,1017.58
2022-10-20T10:36:56.499Z,1017.52
2022-10-20T10:37:56.494Z,1017.46
2022-10-20T10:38:56.477Z,1017.51
2022-10-20T10:39:56.466Z,1017.63
2022-10-20T10:40:56.458Z,1017.46
2022-10-20T10:42:56.434Z,1017.52
2022-10-20T10:43:56.426Z,1017.44
2022-10-20T10:44:56.409Z,1017.52
2022-10-20T10:45:56.405Z,1017.47
2022-10-20T10:46:56.389Z,1017.53
2022-10-20T10:47:56.377Z,1017.46
2022-10-20T10:48:56.365Z,1017.46
2022-10-20T10:49:56.378Z,1017.34
2022-10-20T10:50:56.342Z,1017.37
2022-10-20T10:51:56.331Z,1017.43
2022-10-20T10:52:56.321Z,1017.36
2022-10-20T10:53:56.307Z,1017.36
2022-10-20T10:54:56.300Z,1017.37
2022-10-20T10:55:56.323Z,1017.30
2022-10-20T10:56:56.277Z,1017.36
2022-10-20T10:57:56.263Z,1017.21
2022-10-20T10:58:56.250Z,1017.23
2022-10-20T10:59:56.245Z,1017.20
2022-10-20T11:00:56.364Z,1017.31
2022-10-20T11:01:56.217Z,1017.13
2022-10-20T11:02:56.208Z,1017.16
2022-10-20T11:03:56.275Z,1017.17
2022-10-20T11:04:56.191Z,1017.21
2022-10-20T11:05:56.173Z,1017.12
2022-10-20T11:06:58.028Z,1017.10
2022-10-20T11:07:56.159Z,1017.06
2022-10-20T11:08:56.183Z,1017.11
2022-10-20T11:09:56.134Z,1017.21
2022-10-20T11:10:56.117Z,1017.13
2022-10-20T11:11:56.113Z,1016.98
2022-10-20T11:12:56.102Z,1017.24
2022-10-20T11:13:56.085Z,1017.02
2022-10-20T11:14:56.078Z,1017.03
2022-10-20T11:15:56.061Z,1016.94
2022-10-20T11:16:56.056Z,1017.06
2022-10-20T11:17:56.038Z,1016.91
2022-10-20T11:18:56.028Z,1016.95
2022-10-20T11:19:56.014Z,1016.83
2022-10-20T11:20:56.004Z,1016.97
2022-10-20T11:21:55.992Z,1016.91
2022-10-20T11:22:56.008Z,1016.85
2022-10-20T11:23:55.974Z,1016.96
2022-10-20T11:24:55.960Z,1016.82
2022-10-20T11:25:55.947Z,1016.96
2022-10-20T11:26:55.941Z,1016.68
2022-10-20T11:27:55.924Z,1016.78
2022-10-20T11:28:55.925Z,1016.71
2022-10-20T11:29:55.903Z,1016.68
2022-10-20T11:30:55.907Z,1016.58
2022-10-20T11:31:55.887Z,1016.71
2022-10-20T11:32:55.869Z,1016.53
2022-10-20T11:33:55.861Z,1016.52
2022-10-20T11:34:55.845Z,1016.44
2022-10-20T11:35:55.837Z,1016.50
2022-10-20T11:36:55.828Z,1016.51
2022-10-20T11:37:55.816Z,1016.57
2022-10-20T11:38:55.838Z,1016.48
2022-10-20T11:39:55.794Z,1016.47
2022-10-20T11:40:55.784Z,1016.48
2022-10-20T11:41:55.771Z,1016.47
2022-10-20T11:42:55.763Z,1016.43
2022-10-20T11:43:55.746Z,1016.34
2022-10-20T11:44:55.735Z,1016.51
2022-10-20T11:45:55.723Z,1016.50
2022-10-20T11:46:55.718Z,1016.46
2022-10-20T11:47:55.702Z,1016.48
2022-10-20T11:48:58.227Z,1016.42
2022-10-20T11:49:55.679Z,1016.47
2022-10-20T11:50:55.740Z,1016.40
2022-10-20T11:51:55.667Z,1016.36
2022-10-20T11:52:55.644Z,1016.35
2022-10-20T11:53:55.634Z,1016.35
2022-10-20T11:54:55.650Z,1016.32
2022-10-20T11:55:55.616Z,1016.34
2022-10-20T11:56:55.599Z,1016.33
2022-10-20T11:57:57.664Z,1016.34
2022-10-20T11:58:55.578Z,1016.31
2022-10-20T11:59:55.572Z,1016.28
2022-10-20T12:00:57.663Z,1016.34
2022-10-20T12:01:55.573Z,1016.34
2022-10-20T12:02:55.538Z,1016.30
2022-10-20T12:03:55.522Z,1016.25
2022-10-20T12:04:55.511Z,1016.25
2022-10-20T12:05:55.500Z,1016.30
2022-10-20T12:06:55.489Z,1016.20
2022-10-20T12:08:11.010Z,1016.24
2022-10-20T12:08:55.543Z,1016.27